sensor_id;sensor_type;location;lat;lon;timestamp;temperature;humidity
45283;DHT22;31023;44.994;1.796;2023-05-14T00:00:14;12.80;91.50
45283;DHT22;31023;44.994;1.796;2023-05-14T00:02:41;12.70;91.60
45283;DHT22;31023;44.994;1.796;2023-05-14T00:05:07;12.70;91.70
45283;DHT22;31023;44.994;1.796;2023-05-14T00:07:33;12.70;91.50
45283;DHT22;31023;44.994;1.796;2023-05-14T00:09:59;12.70;91.50
45283;DHT22;31023;44.994;1.796;2023-05-14T00:12:27;12.70;92.00
45283;DHT22;31023;44.994;1.796;2023-05-14T00:14:54;12.60;91.80
45283;DHT22;31023;44.994;1.796;2023-05-14T00:17:21;12.60;91.70
45283;DHT22;31023;44.994;1.796;2023-05-14T00:19:47;12.60;91.70
45283;DHT22;31023;44.994;1.796;2023-05-14T00:22:12;12.60;91.80
45283;DHT22;31023;44.994;1.796;2023-05-14T00:24:38;12.60;92.00
45283;DHT22;31023;44.994;1.796;2023-05-14T00:27:04;12.50;92.30
45283;DHT22;31023;44.994;1.796;2023-05-14T00:29:31;12.50;92.50
45283;DHT22;31023;44.994;1.796;2023-05-14T00:31:56;12.50;92.60
45283;DHT22;31023;44.994;1.796;2023-05-14T00:34:23;12.40;92.80
45283;DHT22;31023;44.994;1.796;2023-05-14T00:36:50;12.40;92.80
45283;DHT22;31023;44.994;1.796;2023-05-14T00:39:15;12.30;92.50
45283;DHT22;31023;44.994;1.796;2023-05-14T00:41:41;12.40;92.60
45283;DHT22;31023;44.994;1.796;2023-05-14T00:44:07;12.30;93.00
45283;DHT22;31023;44.994;1.796;2023-05-14T00:46:32;12.40;92.90
45283;DHT22;31023;44.994;1.796;2023-05-14T00:48:58;12.30;92.90
45283;DHT22;31023;44.994;1.796;2023-05-14T00:51:24;12.30;93.30
45283;DHT22;31023;44.994;1.796;2023-05-14T00:53:51;12.20;93.30
45283;DHT22;31023;44.994;1.796;2023-05-14T00:56:17;12.00;93.60
45283;DHT22;31023;44.994;1.796;2023-05-14T00:58:43;11.90;93.80
45283;DHT22;31023;44.994;1.796;2023-05-14T01:01:09;11.80;94.50
45283;DHT22;31023;44.994;1.796;2023-05-14T01:03:35;11.70;94.50
45283;DHT22;31023;44.994;1.796;2023-05-14T01:09:07;11.50;94.70
45283;DHT22;31023;44.994;1.796;2023-05-14T01:14:44;11.50;94.50
45283;DHT22;31023;44.994;1.796;2023-05-14T01:17:15;11.40;94.40
45283;DHT22;31023;44.994;1.796;2023-05-14T01:19:46;11.30;94.60
45283;DHT22;31023;44.994;1.796;2023-05-14T01:22:12;11.30;94.70
45283;DHT22;31023;44.994;1.796;2023-05-14T01:24:38;11.30;94.60
45283;DHT22;31023;44.994;1.796;2023-05-14T01:32:47;11.20;94.40
45283;DHT22;31023;44.994;1.796;2023-05-14T01:35:13;11.10;94.50
45283;DHT22;31023;44.994;1.796;2023-05-14T01:37:40;11.20;94.40
45283;DHT22;31023;44.994;1.796;2023-05-14T01:40:06;11.20;94.20
45283;DHT22;31023;44.994;1.796;2023-05-14T01:42:34;11.20;94.30
45283;DHT22;31023;44.994;1.796;2023-05-14T01:44:59;11.10;94.60
45283;DHT22;31023;44.994;1.796;2023-05-14T01:47:26;11.00;94.80
45283;DHT22;31023;44.994;1.796;2023-05-14T01:49:51;11.00;95.10
45283;DHT22;31023;44.994;1.796;2023-05-14T01:52:17;10.90;95.30
45283;DHT22;31023;44.994;1.796;2023-05-14T01:54:46;10.90;95.40
45283;DHT22;31023;44.994;1.796;2023-05-14T01:57:11;10.90;95.50
45283;DHT22;31023;44.994;1.796;2023-05-14T01:59:37;10.90;95.40
45283;DHT22;31023;44.994;1.796;2023-05-14T02:02:03;10.90;95.40
45283;DHT22;31023;44.994;1.796;2023-05-14T02:04:28;10.80;95.60
45283;DHT22;31023;44.994;1.796;2023-05-14T02:06:55;10.80;95.60
45283;DHT22;31023;44.994;1.796;2023-05-14T02:09:21;10.80;95.60
45283;DHT22;31023;44.994;1.796;2023-05-14T02:11:46;10.80;95.80
45283;DHT22;31023;44.994;1.796;2023-05-14T02:14:12;10.70;95.90
45283;DHT22;31023;44.994;1.796;2023-05-14T02:16:39;10.60;96.10
45283;DHT22;31023;44.994;1.796;2023-05-14T02:19:05;10.70;96.10
45283;DHT22;31023;44.994;1.796;2023-05-14T02:21:30;10.60;96.00
45283;DHT22;31023;44.994;1.796;2023-05-14T02:23:56;10.70;96.10
45283;DHT22;31023;44.994;1.796;2023-05-14T02:26:22;10.60;96.30
45283;DHT22;31023;44.994;1.796;2023-05-14T02:28:48;10.50;96.60
45283;DHT22;31023;44.994;1.796;2023-05-14T02:31:13;10.50;96.60
45283;DHT22;31023;44.994;1.796;2023-05-14T02:33:39;10.50;96.90
45283;DHT22;31023;44.994;1.796;2023-05-14T02:36:05;10.50;97.30
45283;DHT22;31023;44.994;1.796;2023-05-14T02:38:30;10.50;97.20
45283;DHT22;31023;44.994;1.796;2023-05-14T02:40:56;10.50;97.40
45283;DHT22;31023;44.994;1.796;2023-05-14T02:43:22;10.50;97.30
45283;DHT22;31023;44.994;1.796;2023-05-14T02:45:48;10.70;97.10
45283;DHT22;31023;44.994;1.796;2023-05-14T02:48:13;10.70;96.90
45283;DHT22;31023;44.994;1.796;2023-05-14T02:50:39;10.70;96.70
45283;DHT22;31023;44.994;1.796;2023-05-14T02:53:05;10.70;96.70
45283;DHT22;31023;44.994;1.796;2023-05-14T02:55:30;10.70;96.70
45283;DHT22;31023;44.994;1.796;2023-05-14T02:57:56;10.60;96.80
45283;DHT22;31023;44.994;1.796;2023-05-14T03:00:22;10.60;96.90
45283;DHT22;31023;44.994;1.796;2023-05-14T03:02:48;10.60;97.20
45283;DHT22;31023;44.994;1.796;2023-05-14T03:05:15;10.40;97.50
45283;DHT22;31023;44.994;1.796;2023-05-14T03:07:41;10.30;97.90
45283;DHT22;31023;44.994;1.796;2023-05-14T03:10:07;10.20;98.20
45283;DHT22;31023;44.994;1.796;2023-05-14T03:12:33;10.20;98.50
45283;DHT22;31023;44.994;1.796;2023-05-14T03:14:58;10.00;99.10
45283;DHT22;31023;44.994;1.796;2023-05-14T03:17:24;9.80;99.90
45283;DHT22;31023;44.994;1.796;2023-05-14T03:19:50;9.80;99.90
45283;DHT22;31023;44.994;1.796;2023-05-14T03:22:15;9.90;99.90
45283;DHT22;31023;44.994;1.796;2023-05-14T03:24:41;9.90;99.90
45283;DHT22;31023;44.994;1.796;2023-05-14T03:27:07;9.80;99.90
45283;DHT22;31023;44.994;1.796;2023-05-14T03:29:33;9.60;99.90
45283;DHT22;31023;44.994;1.796;2023-05-14T03:31:58;9.50;99.90
45283;DHT22;31023;44.994;1.796;2023-05-14T03:34:24;9.50;99.90
45283;DHT22;31023;44.994;1.796;2023-05-14T03:36:50;9.60;99.90
45283;DHT22;31023;44.994;1.796;2023-05-14T03:39:15;9.60;99.90
45283;DHT22;31023;44.994;1.796;2023-05-14T03:41:44;9.70;99.90
45283;DHT22;31023;44.994;1.796;2023-05-14T03:44:11;9.60;99.90
45283;DHT22;31023;44.994;1.796;2023-05-14T03:46:36;9.60;99.90
45283;DHT22;31023;44.994;1.796;2023-05-14T03:49:02;9.60;99.90
45283;DHT22;31023;44.994;1.796;2023-05-14T03:51:28;9.50;99.90
45283;DHT22;31023;44.994;1.796;2023-05-14T03:53:53;9.50;99.90
45283;DHT22;31023;44.994;1.796;2023-05-14T03:56:19;9.50;99.90
45283;DHT22;31023;44.994;1.796;2023-05-14T03:58:45;9.50;99.90
45283;DHT22;31023;44.994;1.796;2023-05-14T04:01:11;9.50;99.90
45283;DHT22;31023;44.994;1.796;2023-05-14T04:03:37;9.50;99.90
45283;DHT22;31023;44.994;1.796;2023-05-14T04:06:02;9.50;99.90
45283;DHT22;31023;44.994;1.796;2023-05-14T04:08:28;9.50;99.90
45283;DHT22;31023;44.994;1.796;2023-05-14T04:10:54;9.40;99.90
45283;DHT22;31023;44.994;1.796;2023-05-14T04:13:19;9.40;99.90
45283;DHT22;31023;44.994;1.796;2023-05-14T04:15:45;9.40;99.90
45283;DHT22;31023;44.994;1.796;2023-05-14T04:18:11;9.40;99.90
45283;DHT22;31023;44.994;1.796;2023-05-14T04:20:37;9.50;99.90
45283;DHT22;31023;44.994;1.796;2023-05-14T04:23:03;9.50;99.90
45283;DHT22;31023;44.994;1.796;2023-05-14T04:25:29;9.50;99.90
45283;DHT22;31023;44.994;1.796;2023-05-14T04:27:55;9.60;99.90
45283;DHT22;31023;44.994;1.796;2023-05-14T04:30:20;9.50;99.90
45283;DHT22;31023;44.994;1.796;2023-05-14T04:32:46;9.50;99.90
45283;DHT22;31023;44.994;1.796;2023-05-14T04:35:12;9.60;99.90
45283;DHT22;31023;44.994;1.796;2023-05-14T04:37:37;9.80;99.90
45283;DHT22;31023;44.994;1.796;2023-05-14T04:40:05;9.90;99.90
45283;DHT22;31023;44.994;1.796;2023-05-14T04:42:31;9.80;99.90
45283;DHT22;31023;44.994;1.796;2023-05-14T04:44:56;10.00;99.90
45283;DHT22;31023;44.994;1.796;2023-05-14T04:47:23;10.10;99.90
45283;DHT22;31023;44.994;1.796;2023-05-14T04:49:48;10.30;99.90
45283;DHT22;31023;44.994;1.796;2023-05-14T04:52:14;10.30;99.90
45283;DHT22;31023;44.994;1.796;2023-05-14T04:54:40;10.20;99.90
45283;DHT22;31023;44.994;1.796;2023-05-14T04:57:06;10.40;99.90
45283;DHT22;31023;44.994;1.796;2023-05-14T04:59:31;10.50;99.90
45283;DHT22;31023;44.994;1.796;2023-05-14T05:01:57;10.60;99.90
45283;DHT22;31023;44.994;1.796;2023-05-14T05:04:23;10.80;99.90
45283;DHT22;31023;44.994;1.796;2023-05-14T05:06:49;10.90;99.30
45283;DHT22;31023;44.994;1.796;2023-05-14T05:09:16;10.90;99.30
45283;DHT22;31023;44.994;1.796;2023-05-14T05:11:42;10.90;98.80
45283;DHT22;31023;44.994;1.796;2023-05-14T05:14:08;11.10;98.70
45283;DHT22;31023;44.994;1.796;2023-05-14T05:16:33;11.20;98.60
45283;DHT22;31023;44.994;1.796;2023-05-14T05:18:59;11.20;97.90
45283;DHT22;31023;44.994;1.796;2023-05-14T05:21:25;11.30;98.20
45283;DHT22;31023;44.994;1.796;2023-05-14T05:23:50;11.60;97.50
45283;DHT22;31023;44.994;1.796;2023-05-14T05:26:16;11.80;96.90
45283;DHT22;31023;44.994;1.796;2023-05-14T05:28:42;12.20;96.40
45283;DHT22;31023;44.994;1.796;2023-05-14T05:31:07;12.30;96.50
45283;DHT22;31023;44.994;1.796;2023-05-14T05:33:33;14.30;93.00
45283;DHT22;31023;44.994;1.796;2023-05-14T05:35:59;15.10;90.10
45283;DHT22;31023;44.994;1.796;2023-05-14T05:38:25;15.10;90.20
45283;DHT22;31023;44.994;1.796;2023-05-14T05:40:51;15.40;87.20
45283;DHT22;31023;44.994;1.796;2023-05-14T05:43:17;14.00;90.10
45283;DHT22;31023;44.994;1.796;2023-05-14T05:45:42;12.70;93.30
45283;DHT22;31023;44.994;1.796;2023-05-14T05:48:08;12.20;94.60
45283;DHT22;31023;44.994;1.796;2023-05-14T05:50:34;11.90;94.80
45283;DHT22;31023;44.994;1.796;2023-05-14T05:53:00;11.80;95.10
45283;DHT22;31023;44.994;1.796;2023-05-14T05:55:25;11.70;95.20
45283;DHT22;31023;44.994;1.796;2023-05-14T05:57:51;11.70;95.30
45283;DHT22;31023;44.994;1.796;2023-05-14T06:00:17;11.70;95.00
45283;DHT22;31023;44.994;1.796;2023-05-14T06:02:43;11.90;94.80
45283;DHT22;31023;44.994;1.796;2023-05-14T06:05:09;12.20;94.30
45283;DHT22;31023;44.994;1.796;2023-05-14T06:07:36;12.40;93.30
45283;DHT22;31023;44.994;1.796;2023-05-14T06:10:02;13.00;92.90
45283;DHT22;31023;44.994;1.796;2023-05-14T06:12:27;13.00;92.60
45283;DHT22;31023;44.994;1.796;2023-05-14T06:14:54;13.00;92.10
45283;DHT22;31023;44.994;1.796;2023-05-14T06:17:24;13.20;92.20
45283;DHT22;31023;44.994;1.796;2023-05-14T06:19:50;13.60;91.70
45283;DHT22;31023;44.994;1.796;2023-05-14T06:22:16;13.70;91.70
45283;DHT22;31023;44.994;1.796;2023-05-14T06:24:42;16.20;87.90
45283;DHT22;31023;44.994;1.796;2023-05-14T06:27:09;16.80;77.40
45283;DHT22;31023;44.994;1.796;2023-05-14T06:29:36;15.30;84.30
45283;DHT22;31023;44.994;1.796;2023-05-14T06:32:02;14.80;87.40
45283;DHT22;31023;44.994;1.796;2023-05-14T06:34:29;15.40;84.40
45283;DHT22;31023;44.994;1.796;2023-05-14T06:36:55;15.70;83.30
45283;DHT22;31023;44.994;1.796;2023-05-14T06:39:22;17.60;78.40
45283;DHT22;31023;44.994;1.796;2023-05-14T06:41:48;20.30;70.80
45283;DHT22;31023;44.994;1.796;2023-05-14T06:44:14;20.50;68.60
45283;DHT22;31023;44.994;1.796;2023-05-14T06:46:40;20.30;67.40
45283;DHT22;31023;44.994;1.796;2023-05-14T06:49:06;20.80;67.30
45283;DHT22;31023;44.994;1.796;2023-05-14T06:51:31;21.30;65.20
45283;DHT22;31023;44.994;1.796;2023-05-14T06:53:57;20.70;65.00
45283;DHT22;31023;44.994;1.796;2023-05-14T06:56:23;21.50;62.00
45283;DHT22;31023;44.994;1.796;2023-05-14T06:58:48;22.50;60.00
45283;DHT22;31023;44.994;1.796;2023-05-14T07:01:15;21.30;63.70
45283;DHT22;31023;44.994;1.796;2023-05-14T07:03:41;21.70;61.00
45283;DHT22;31023;44.994;1.796;2023-05-14T07:06:06;19.60;64.70
45283;DHT22;31023;44.994;1.796;2023-05-14T07:08:32;22.20;60.40
45283;DHT22;31023;44.994;1.796;2023-05-14T07:10:58;22.50;57.30
45283;DHT22;31023;44.994;1.796;2023-05-14T07:13:25;20.50;60.40
45283;DHT22;31023;44.994;1.796;2023-05-14T07:15:52;18.30;65.60
45283;DHT22;31023;44.994;1.796;2023-05-14T07:18:20;20.30;64.30
45283;DHT22;31023;44.994;1.796;2023-05-14T07:20:46;22.30;59.50
45283;DHT22;31023;44.994;1.796;2023-05-14T07:23:12;19.80;62.40
45283;DHT22;31023;44.994;1.796;2023-05-14T07:25:37;20.80;61.90
45283;DHT22;31023;44.994;1.796;2023-05-14T07:28:03;22.10;56.60
45283;DHT22;31023;44.994;1.796;2023-05-14T07:30:29;18.20;65.80
45283;DHT22;31023;44.994;1.796;2023-05-14T07:32:54;17.60;69.40
45283;DHT22;31023;44.994;1.796;2023-05-14T07:35:20;18.90;65.30
45283;DHT22;31023;44.994;1.796;2023-05-14T07:37:46;19.00;63.90
45283;DHT22;31023;44.994;1.796;2023-05-14T07:40:12;17.80;69.80
45283;DHT22;31023;44.994;1.796;2023-05-14T07:42:37;16.80;73.20
45283;DHT22;31023;44.994;1.796;2023-05-14T07:45:04;16.70;73.30
45283;DHT22;31023;44.994;1.796;2023-05-14T07:47:30;17.40;69.40
45283;DHT22;31023;44.994;1.796;2023-05-14T07:49:56;22.90;59.90
45283;DHT22;31023;44.994;1.796;2023-05-14T07:52:22;24.80;55.10
45283;DHT22;31023;44.994;1.796;2023-05-14T07:54:49;24.00;55.90
45283;DHT22;31023;44.994;1.796;2023-05-14T07:57:15;21.60;56.30
45283;DHT22;31023;44.994;1.796;2023-05-14T07:59:41;19.10;65.00
45283;DHT22;31023;44.994;1.796;2023-05-14T08:02:06;20.80;63.90
45283;DHT22;31023;44.994;1.796;2023-05-14T08:04:34;20.80;59.30
45283;DHT22;31023;44.994;1.796;2023-05-14T08:07:00;19.40;64.50
45283;DHT22;31023;44.994;1.796;2023-05-14T08:09:26;19.60;64.60
45283;DHT22;31023;44.994;1.796;2023-05-14T08:11:52;19.00;65.70
45283;DHT22;31023;44.994;1.796;2023-05-14T08:14:17;18.50;66.20
45283;DHT22;31023;44.994;1.796;2023-05-14T08:16:43;19.20;65.20
45283;DHT22;31023;44.994;1.796;2023-05-14T08:21:37;19.90;63.00
45283;DHT22;31023;44.994;1.796;2023-05-14T08:24:03;21.20;59.90
45283;DHT22;31023;44.994;1.796;2023-05-14T08:26:29;21.00;60.10
45283;DHT22;31023;44.994;1.796;2023-05-14T08:28:54;21.10;60.20
45283;DHT22;31023;44.994;1.796;2023-05-14T08:31:20;22.10;57.50
45283;DHT22;31023;44.994;1.796;2023-05-14T08:33:46;22.10;58.20
45283;DHT22;31023;44.994;1.796;2023-05-14T08:36:11;23.20;55.30
45283;DHT22;31023;44.994;1.796;2023-05-14T08:38:37;22.10;58.70
45283;DHT22;31023;44.994;1.796;2023-05-14T08:41:04;22.50;57.60
45283;DHT22;31023;44.994;1.796;2023-05-14T08:46:05;21.70;58.10
45283;DHT22;31023;44.994;1.796;2023-05-14T08:48:32;22.60;57.50
45283;DHT22;31023;44.994;1.796;2023-05-14T08:50:59;26.10;52.00
45283;DHT22;31023;44.994;1.796;2023-05-14T08:53:25;25.50;54.00
45283;DHT22;31023;44.994;1.796;2023-05-14T08:55:52;23.40;53.90
45283;DHT22;31023;44.994;1.796;2023-05-14T08:58:18;21.70;58.50
45283;DHT22;31023;44.994;1.796;2023-05-14T09:00:44;22.30;58.10
45283;DHT22;31023;44.994;1.796;2023-05-14T09:03:11;22.20;58.80
45283;DHT22;31023;44.994;1.796;2023-05-14T09:05:37;20.80;62.90
45283;DHT22;31023;44.994;1.796;2023-05-14T09:08:03;20.80;65.40
45283;DHT22;31023;44.994;1.796;2023-05-14T09:10:29;20.70;61.10
45283;DHT22;31023;44.994;1.796;2023-05-14T09:12:55;21.50;63.00
45283;DHT22;31023;44.994;1.796;2023-05-14T09:15:21;23.20;57.80
45283;DHT22;31023;44.994;1.796;2023-05-14T09:17:47;21.50;61.00
45283;DHT22;31023;44.994;1.796;2023-05-14T09:20:13;25.80;57.60
45283;DHT22;31023;44.994;1.796;2023-05-14T09:22:39;28.90;52.90
45283;DHT22;31023;44.994;1.796;2023-05-14T09:25:07;27.30;51.80
45283;DHT22;31023;44.994;1.796;2023-05-14T09:27:34;27.40;53.80
45283;DHT22;31023;44.994;1.796;2023-05-14T09:30:18;24.50;56.60
45283;DHT22;31023;44.994;1.796;2023-05-14T09:32:44;23.60;57.10
45283;DHT22;31023;44.994;1.796;2023-05-14T09:35:11;26.00;59.40
45283;DHT22;31023;44.994;1.796;2023-05-14T09:37:37;26.70;58.00
45283;DHT22;31023;44.994;1.796;2023-05-14T09:40:06;28.80;53.00
45283;DHT22;31023;44.994;1.796;2023-05-14T09:42:33;25.10;56.40
45283;DHT22;31023;44.994;1.796;2023-05-14T09:44:59;22.90;59.30
45283;DHT22;31023;44.994;1.796;2023-05-14T09:47:24;22.00;61.70
45283;DHT22;31023;44.994;1.796;2023-05-14T09:49:51;23.00;61.30
45283;DHT22;31023;44.994;1.796;2023-05-14T09:52:22;24.80;60.30
45283;DHT22;31023;44.994;1.796;2023-05-14T09:54:48;23.60;57.50
45283;DHT22;31023;44.994;1.796;2023-05-14T09:57:15;23.00;59.90
45283;DHT22;31023;44.994;1.796;2023-05-14T09:59:41;23.40;59.70
45283;DHT22;31023;44.994;1.796;2023-05-14T10:02:42;23.80;59.90
45283;DHT22;31023;44.994;1.796;2023-05-14T10:05:03;23.40;58.30
45283;DHT22;31023;44.994;1.796;2023-05-14T10:07:38;23.10;61.60
45283;DHT22;31023;44.994;1.796;2023-05-14T10:10:06;23.00;61.10
45283;DHT22;31023;44.994;1.796;2023-05-14T10:12:37;23.10;60.20
45283;DHT22;31023;44.994;1.796;2023-05-14T10:15:08;23.10;61.80
45283;DHT22;31023;44.994;1.796;2023-05-14T10:17:40;24.00;61.20
45283;DHT22;31023;44.994;1.796;2023-05-14T10:20:08;23.80;59.70
45283;DHT22;31023;44.994;1.796;2023-05-14T10:22:36;25.30;57.80
45283;DHT22;31023;44.994;1.796;2023-05-14T10:25:02;22.50;63.20
45283;DHT22;31023;44.994;1.796;2023-05-14T10:27:28;21.10;65.90
45283;DHT22;31023;44.994;1.796;2023-05-14T10:29:55;21.00;66.90
45283;DHT22;31023;44.994;1.796;2023-05-14T10:32:22;20.80;66.00
45283;DHT22;31023;44.994;1.796;2023-05-14T10:34:54;20.90;66.00
45283;DHT22;31023;44.994;1.796;2023-05-14T10:37:24;21.40;65.30
45283;DHT22;31023;44.994;1.796;2023-05-14T10:42:25;20.20;67.90
45283;DHT22;31023;44.994;1.796;2023-05-14T10:44:56;20.60;68.90
45283;DHT22;31023;44.994;1.796;2023-05-14T10:47:30;22.00;70.20
45283;DHT22;31023;44.994;1.796;2023-05-14T10:49:58;22.50;68.40
45283;DHT22;31023;44.994;1.796;2023-05-14T10:52:24;22.50;67.50
45283;DHT22;31023;44.994;1.796;2023-05-14T10:54:58;22.80;65.10
45283;DHT22;31023;44.994;1.796;2023-05-14T10:57:28;23.10;65.30
45283;DHT22;31023;44.994;1.796;2023-05-14T10:59:56;21.90;66.50
45283;DHT22;31023;44.994;1.796;2023-05-14T11:02:31;21.00;66.50
45283;DHT22;31023;44.994;1.796;2023-05-14T11:04:58;20.30;68.40
45283;DHT22;31023;44.994;1.796;2023-05-14T11:07:31;20.60;67.40
45283;DHT22;31023;44.994;1.796;2023-05-14T11:10:05;20.40;66.70
45283;DHT22;31023;44.994;1.796;2023-05-14T11:12:33;20.90;67.60
45283;DHT22;31023;44.994;1.796;2023-05-14T11:15:01;20.40;66.90
45283;DHT22;31023;44.994;1.796;2023-05-14T11:17:29;20.40;69.40
45283;DHT22;31023;44.994;1.796;2023-05-14T11:19:55;20.30;71.50
45283;DHT22;31023;44.994;1.796;2023-05-14T11:22:22;20.50;72.10
45283;DHT22;31023;44.994;1.796;2023-05-14T11:24:48;20.60;70.70
45283;DHT22;31023;44.994;1.796;2023-05-14T11:27:15;20.70;74.40
45283;DHT22;31023;44.994;1.796;2023-05-14T11:29:45;20.90;71.40
45283;DHT22;31023;44.994;1.796;2023-05-14T11:32:12;21.30;73.00
45283;DHT22;31023;44.994;1.796;2023-05-14T11:34:38;21.80;72.80
45283;DHT22;31023;44.994;1.796;2023-05-14T11:37:08;21.70;69.50
45283;DHT22;31023;44.994;1.796;2023-05-14T11:39:35;20.40;69.10
45283;DHT22;31023;44.994;1.796;2023-05-14T11:42:08;19.40;76.40
45283;DHT22;31023;44.994;1.796;2023-05-14T11:44:34;19.60;75.40
45283;DHT22;31023;44.994;1.796;2023-05-14T11:47:00;19.40;78.80
45283;DHT22;31023;44.994;1.796;2023-05-14T11:49:27;19.60;82.20
45283;DHT22;31023;44.994;1.796;2023-05-14T11:52:00;19.90;83.60
45283;DHT22;31023;44.994;1.796;2023-05-14T11:54:30;20.10;86.40
45283;DHT22;31023;44.994;1.796;2023-05-14T11:56:57;20.20;85.80
45283;DHT22;31023;44.994;1.796;2023-05-14T11:59:30;20.30;88.40
45283;DHT22;31023;44.994;1.796;2023-05-14T12:01:57;20.60;83.40
45283;DHT22;31023;44.994;1.796;2023-05-14T12:04:23;20.80;83.10
45283;DHT22;31023;44.994;1.796;2023-05-14T12:06:49;21.30;82.20
45283;DHT22;31023;44.994;1.796;2023-05-14T12:09:19;21.20;81.60
45283;DHT22;31023;44.994;1.796;2023-05-14T12:11:45;20.30;80.20
45283;DHT22;31023;44.994;1.796;2023-05-14T12:14:19;19.60;81.20
45283;DHT22;31023;44.994;1.796;2023-05-14T12:16:46;19.50;83.10
45283;DHT22;31023;44.994;1.796;2023-05-14T12:19:18;19.40;81.50
45283;DHT22;31023;44.994;1.796;2023-05-14T12:21:46;18.80;83.00
45283;DHT22;31023;44.994;1.796;2023-05-14T12:24:14;19.30;79.40
45283;DHT22;31023;44.994;1.796;2023-05-14T12:26:44;19.30;78.20
45283;DHT22;31023;44.994;1.796;2023-05-14T12:29:12;19.40;79.90
45283;DHT22;31023;44.994;1.796;2023-05-14T12:31:47;19.50;78.40
45283;DHT22;31023;44.994;1.796;2023-05-14T12:34:13;19.00;79.00
45283;DHT22;31023;44.994;1.796;2023-05-14T12:36:39;18.80;77.40
45283;DHT22;31023;44.994;1.796;2023-05-14T12:39:05;18.50;77.10
45283;DHT22;31023;44.994;1.796;2023-05-14T12:41:31;18.30;77.50
45283;DHT22;31023;44.994;1.796;2023-05-14T12:43:58;18.40;79.60
45283;DHT22;31023;44.994;1.796;2023-05-14T12:46:25;18.70;78.90
45283;DHT22;31023;44.994;1.796;2023-05-14T12:48:51;19.10;76.30
45283;DHT22;31023;44.994;1.796;2023-05-14T12:51:17;19.80;74.60
45283;DHT22;31023;44.994;1.796;2023-05-14T12:53:43;20.40;73.50
45283;DHT22;31023;44.994;1.796;2023-05-14T12:56:08;20.80;75.30
45283;DHT22;31023;44.994;1.796;2023-05-14T12:58:34;20.60;73.80
45283;DHT22;31023;44.994;1.796;2023-05-14T13:01:00;20.30;76.30
45283;DHT22;31023;44.994;1.796;2023-05-14T13:03:25;19.50;78.30
45283;DHT22;31023;44.994;1.796;2023-05-14T13:05:52;19.20;79.50
45283;DHT22;31023;44.994;1.796;2023-05-14T13:08:20;19.00;80.60
45283;DHT22;31023;44.994;1.796;2023-05-14T13:10:46;19.20;82.50
45283;DHT22;31023;44.994;1.796;2023-05-14T13:13:14;19.30;78.70
45283;DHT22;31023;44.994;1.796;2023-05-14T13:15:40;19.20;77.10
45283;DHT22;31023;44.994;1.796;2023-05-14T13:18:06;19.70;76.70
45283;DHT22;31023;44.994;1.796;2023-05-14T13:20:32;19.80;74.90
45283;DHT22;31023;44.994;1.796;2023-05-14T13:22:58;19.70;74.00
45283;DHT22;31023;44.994;1.796;2023-05-14T13:25:24;19.70;73.90
45283;DHT22;31023;44.994;1.796;2023-05-14T13:27:50;19.50;71.70
45283;DHT22;31023;44.994;1.796;2023-05-14T13:30:19;19.40;71.50
45283;DHT22;31023;44.994;1.796;2023-05-14T13:32:45;19.70;71.80
45283;DHT22;31023;44.994;1.796;2023-05-14T13:35:11;20.30;73.80
45283;DHT22;31023;44.994;1.796;2023-05-14T13:37:37;20.30;73.20
45283;DHT22;31023;44.994;1.796;2023-05-14T13:40:03;20.20;71.20
45283;DHT22;31023;44.994;1.796;2023-05-14T13:42:31;20.10;65.30
45283;DHT22;31023;44.994;1.796;2023-05-14T13:44:58;20.20;65.10
45283;DHT22;31023;44.994;1.796;2023-05-14T13:47:24;20.60;65.60
45283;DHT22;31023;44.994;1.796;2023-05-14T13:49:53;21.10;67.40
45283;DHT22;31023;44.994;1.796;2023-05-14T13:52:19;21.30;65.80
45283;DHT22;31023;44.994;1.796;2023-05-14T13:54:46;21.30;62.90
45283;DHT22;31023;44.994;1.796;2023-05-14T13:57:12;20.50;65.80
45283;DHT22;31023;44.994;1.796;2023-05-14T13:59:37;20.30;66.90
45283;DHT22;31023;44.994;1.796;2023-05-14T14:02:04;19.80;67.80
45283;DHT22;31023;44.994;1.796;2023-05-14T14:04:30;19.50;66.00
45283;DHT22;31023;44.994;1.796;2023-05-14T14:06:56;19.10;66.90
45283;DHT22;31023;44.994;1.796;2023-05-14T14:09:22;18.70;68.00
45283;DHT22;31023;44.994;1.796;2023-05-14T14:11:48;18.50;67.30
45283;DHT22;31023;44.994;1.796;2023-05-14T14:14:15;18.60;68.00
45283;DHT22;31023;44.994;1.796;2023-05-14T14:16:40;18.40;69.10
45283;DHT22;31023;44.994;1.796;2023-05-14T14:19:06;18.50;68.20
45283;DHT22;31023;44.994;1.796;2023-05-14T14:21:32;18.60;66.90
45283;DHT22;31023;44.994;1.796;2023-05-14T14:23:59;18.20;68.90
45283;DHT22;31023;44.994;1.796;2023-05-14T14:26:26;18.20;67.70
45283;DHT22;31023;44.994;1.796;2023-05-14T14:28:52;18.20;67.80
45283;DHT22;31023;44.994;1.796;2023-05-14T14:31:19;18.10;68.60
45283;DHT22;31023;44.994;1.796;2023-05-14T14:33:45;18.10;71.80
45283;DHT22;31023;44.994;1.796;2023-05-14T14:36:10;18.20;71.00
45283;DHT22;31023;44.994;1.796;2023-05-14T14:38:36;17.90;71.50
45283;DHT22;31023;44.994;1.796;2023-05-14T14:41:04;17.70;72.80
45283;DHT22;31023;44.994;1.796;2023-05-14T14:43:31;17.90;72.60
45283;DHT22;31023;44.994;1.796;2023-05-14T14:45:57;18.10;72.90
45283;DHT22;31023;44.994;1.796;2023-05-14T14:48:33;18.30;73.00
45283;DHT22;31023;44.994;1.796;2023-05-14T14:51:02;18.40;74.40
45283;DHT22;31023;44.994;1.796;2023-05-14T14:53:28;18.20;72.00
45283;DHT22;31023;44.994;1.796;2023-05-14T14:55:55;18.10;72.00
45283;DHT22;31023;44.994;1.796;2023-05-14T14:58:22;18.10;71.10
45283;DHT22;31023;44.994;1.796;2023-05-14T15:00:50;18.10;71.90
45283;DHT22;31023;44.994;1.796;2023-05-14T15:03:17;18.20;71.20
45283;DHT22;31023;44.994;1.796;2023-05-14T15:05:42;18.20;73.40
45283;DHT22;31023;44.994;1.796;2023-05-14T15:08:08;18.30;72.30
45283;DHT22;31023;44.994;1.796;2023-05-14T15:10:34;18.40;73.30
45283;DHT22;31023;44.994;1.796;2023-05-14T15:13:04;18.90;72.80
45283;DHT22;31023;44.994;1.796;2023-05-14T15:15:31;19.00;71.10
45283;DHT22;31023;44.994;1.796;2023-05-14T15:17:57;18.90;67.00
45283;DHT22;31023;44.994;1.796;2023-05-14T15:20:23;18.90;69.40
45283;DHT22;31023;44.994;1.796;2023-05-14T15:22:49;19.10;66.40
45283;DHT22;31023;44.994;1.796;2023-05-14T15:25:17;19.50;67.80
45283;DHT22;31023;44.994;1.796;2023-05-14T15:27:43;19.30;65.90
45283;DHT22;31023;44.994;1.796;2023-05-14T15:30:09;19.40;64.30
45283;DHT22;31023;44.994;1.796;2023-05-14T15:32:35;19.40;63.00
45283;DHT22;31023;44.994;1.796;2023-05-14T15:35:01;19.10;65.30
45283;DHT22;31023;44.994;1.796;2023-05-14T15:37:26;18.80;66.30
45283;DHT22;31023;44.994;1.796;2023-05-14T15:39:52;18.50;66.50
45283;DHT22;31023;44.994;1.796;2023-05-14T15:42:18;18.20;65.80
45283;DHT22;31023;44.994;1.796;2023-05-14T15:44:45;18.20;65.40
45283;DHT22;31023;44.994;1.796;2023-05-14T15:47:10;18.30;66.90